FAUT

K. D. Matanzima Airport

Mthatha, South Africa
METAR FAUT 232100Z AUTO 19001KT //// // ////// 11/09 Q1020
Observed Flight Rules
May-23 @ 21:00 UTC (5 hours ago)
Wind
190° at 1 knots
Temperatures Readings
Current 11°C / 52°F
Dewpoint 9°C / 48°F
Humidity 88%
Altimeter 30.12" Hg
Pressure 1020 hPa
Elevation 732
METAR FAUT 232100Z AUTO 19001KT //// // ////// 11/09 Q1020
Observed Flight Rules
May-23 @ 21:00 UTC
(5 hours ago)
Wind
190° at 1 knots
Temperature Dewpoint
11°C / 52°F 9°C / 48°F
Humidity Altimeter Pressure
88% 30.12" Hg 1020 hPa